Terminal Aerodrome Forecast
Issued by NWS Louisville, KY

Home | Current Version | Previous Version | Text Only | Print | Product List | Glossary On
Versions: 1 2 3 4 5 6 7 8 9 10 11 12 13 14 15 16 17 18 19 20 21
000
FTUS43 KLMK 201739
TAFSDF
TAF
KSDF 201739Z 2018/2124 20019G31KT P6SM SCT035 SCT250
     FM210000 19014G23KT P6SM SCT035 BKN110
     FM210900 20012KT 6SM -SHRA BR BKN025
     FM211300 25009KT 4SM SHRA BKN015
     FM211400 30009KT 3SM SHRA BKN010=

USA.gov is the U.S. government's official web portal to all federal, state and local government web resources and services.